Redcliff, Canada
Current Conditions -  °F | °C
As of 8:00 PM on Thursday 27 Nov 2014 (Local Time) from CYXH Reporting Station
Haze Haze  
Wind Chill: -3°   Ceiling: 200
Heat Index: -3°   Visibility: 2mi
Dew Point: -3°   Wind: 3mph
Humidity: 100%   Direction: 250°WSW
Pressure: 29.7"   Gusts: NA
Location:  50.08°N, 110.79°W
Report Text: CYXH 280300Z 25003KT 2SM BR OVC002 M03/M03 A2970 RMK ST8 LAST STFD OBS / NEXT 281300Z SLP088
Loading
Personal Weather Stations






























Interactive Weather Map New forecast layout! Learn more

10-Day Weather Forecast

Advertisements
Track Severe Weather on mobile